Main page
METAR-TAF:

METAR-TAF

Airports :

Gwadar International Airport

Gwadar, Pakistan

latitude: 25-13-59N, longitude: 062-19-46E, elevation: 29 m

Current weather observation

The report was made 25 hours and 8 minutes ago, at 16:00 UTC
Temperature
Pressure

METAR: OPGD 171600Z METAR

Time: 22:08 (17:08 UTC)

Forecast

The report was made 7 hours and 38 minutes ago, at 09:30 UTC
Forecast valid from 18 at 12 UTC to 19 at 12 UTC
Wind 5 kt from the West/Southwest with gusts up to 15 kt
Visibility: 5000 m
haze
From 18 at 1600 UTC
Wind 3 kt from variable directions
Visibility: 3000 m
smoke
Temporary
from 19 at 01 UTC to 19 at 05 UTC
Wind kt from the North
Visibility: 1000 m
Few clouds at a height of 10000 ft
mist
From 19 at 0600 UTC
Wind 5 kt from the West/Southwest with gusts up to 15 kt
Visibility: 5000 m
haze

TAF: OPGD 180930Z 1812/1912 24005G15KT 5000 HZ NSC FM181600 VRB03KT 3000 FU NSC TEMPO 1901/1905 00000KT 1000 BR FEW100 FM190600 24005G15KT 5000 HZ NSC

Weather observations and forecasts of more than 4000 airports (METAR and TAF reports).

The available stations are represented by yellow and red dots on the map.

Hover mouse over dot to see the name of the station.

Then click to see weather observations and forecasts.

To change the map : click on the green buttons with a black cross to zoom in, on the green button with a dash to zoom out, or on the green arrows for adjacent maps.


METAR-TAF: